EFW74V LGKO-EGKK
Flight info
| Callsign | EFW74V |
|---|---|
| Flight time | 3h 45m |
| Altitude | 32000 |
| Route | LARKI UL609 MES DCT DISOR/N0454F340 DCT LONTA UL608 DOLEV DCT YUYUH DCT GENLU DCT KEB DCT EVTON DCT MONID DCT RUGOG DCT RIFEN DCT RISOM DCT MOBDO DCT SAFFA DCT ELMUR L613 HOC DCT LUL DCT RLP DCT ROTSI DCT KOTUN DCT NINAL DCT KESAX DCT KUNAV |
| Aircraft | A321/M-SDE3FGHIRWY/LB1 |
Departure
| Time | 2026-05-06 11:37 |
|---|---|
| Airport | Kos International Airport "Ippokratis" (LGKO) |
Arrival
| Time | 2026-05-06 15:23 |
|---|---|
| Airport | London Gatwick Airport (EGKK) |
| Time | Latitude | Longitude | Altitude | Speed | Heading |
|---|---|---|---|---|---|
| 2026-05-06 11:30 | 36.80003 | 27.08953 | 406 ft | 4 kts | 105° |
| 2026-05-06 11:30 | 36.80014 | 27.08924 | 410 ft | 4 kts | 135° |
| 2026-05-06 11:31 | 36.80029 | 27.08909 | 410 ft | 1 kts | 148° |
| 2026-05-06 11:31 | 36.80031 | 27.08907 | 410 ft | 0 kts | 148° |
| 2026-05-06 11:33 | 36.80025 | 27.08912 | 413 ft | 4 kts | 148° |
| 2026-05-06 11:33 | 36.79977 | 27.08949 | 410 ft | 12 kts | 149° |
| 2026-05-06 11:33 | 36.79876 | 27.08982 | 411 ft | 18 kts | 177° |
| 2026-05-06 11:34 | 36.79748 | 27.08987 | 409 ft | 20 kts | 179° |
| 2026-05-06 11:34 | 36.79607 | 27.09004 | 409 ft | 21 kts | 153° |
| 2026-05-06 11:34 | 36.79478 | 27.09101 | 406 ft | 22 kts | 148° |
| 2026-05-06 11:34 | 36.79344 | 27.09206 | 403 ft | 21 kts | 148° |
| 2026-05-06 11:35 | 36.79210 | 27.09310 | 397 ft | 24 kts | 148° |
| 2026-05-06 11:35 | 36.79069 | 27.09419 | 393 ft | 23 kts | 148° |
| 2026-05-06 11:35 | 36.78940 | 27.09519 | 394 ft | 21 kts | 148° |
| 2026-05-06 11:35 | 36.78816 | 27.09614 | 393 ft | 21 kts | 148° |
| 2026-05-06 11:36 | 36.78693 | 27.09711 | 392 ft | 21 kts | 148° |
| 2026-05-06 11:36 | 36.78602 | 27.09823 | 390 ft | 15 kts | 143° |
| 2026-05-06 11:36 | 36.78585 | 27.09787 | 390 ft | 7 kts | 334° |
| 2026-05-06 11:36 | 36.78625 | 27.09762 | 391 ft | 6 kts | 330° |
| 2026-05-06 11:37 | 36.78729 | 27.09683 | 392 ft | 47 kts | 328° |
| 2026-05-06 11:37 | 36.79205 | 27.09313 | 398 ft | 114 kts | 328° |
| 2026-05-06 11:37 | 36.80033 | 27.08669 | 495 ft | 158 kts | 327° |
| 2026-05-06 11:37 | 36.80934 | 27.07941 | 1315 ft | 154 kts | 320° |
| 2026-05-06 11:38 | 36.81471 | 27.06781 | 1994 ft | 165 kts | 281° |
| 2026-05-06 11:38 | 36.81340 | 27.05255 | 2408 ft | 189 kts | 260° |
| 2026-05-06 11:38 | 36.81395 | 27.03566 | 2639 ft | 206 kts | 294° |
| 2026-05-06 11:38 | 36.82117 | 27.01976 | 2801 ft | 217 kts | 307° |
| 2026-05-06 11:39 | 36.83041 | 27.00423 | 3054 ft | 226 kts | 309° |
| 2026-05-06 11:39 | 36.83996 | 26.98854 | 3482 ft | 228 kts | 310° |
| 2026-05-06 11:39 | 36.84935 | 26.97256 | 3914 ft | 229 kts | 309° |
| 2026-05-06 11:39 | 36.85851 | 26.95629 | 4367 ft | 229 kts | 308° |
| 2026-05-06 11:40 | 36.86744 | 26.93982 | 4898 ft | 229 kts | 308° |
| 2026-05-06 11:40 | 36.87652 | 26.92272 | 5245 ft | 247 kts | 307° |
| 2026-05-06 11:40 | 36.88619 | 26.90428 | 5644 ft | 258 kts | 307° |
| 2026-05-06 11:40 | 36.89596 | 26.88538 | 6306 ft | 259 kts | 306° |
| 2026-05-06 11:41 | 36.90568 | 26.86641 | 6972 ft | 260 kts | 305° |
| 2026-05-06 11:41 | 36.91545 | 26.84722 | 7548 ft | 263 kts | 305° |
| 2026-05-06 11:41 | 36.92533 | 26.82780 | 8131 ft | 267 kts | 305° |
| 2026-05-06 11:41 | 36.93537 | 26.80813 | 8709 ft | 270 kts | 305° |
| 2026-05-06 11:42 | 36.94543 | 26.78805 | 9293 ft | 274 kts | 303° |
| 2026-05-06 11:42 | 36.95472 | 26.76704 | 9879 ft | 278 kts | 301° |
| 2026-05-06 11:42 | 36.96471 | 26.74623 | 10361 ft | 282 kts | 313° |
| 2026-05-06 11:42 | 36.98086 | 26.73193 | 10481 ft | 295 kts | 343° |
| 2026-05-06 11:43 | 37.00160 | 26.73020 | 10608 ft | 311 kts | 12° |
| 2026-05-06 11:43 | 37.02143 | 26.74242 | 10735 ft | 331 kts | 37° |
| 2026-05-06 11:43 | 37.03939 | 26.76151 | 10895 ft | 344 kts | 33° |
| 2026-05-06 11:44 | 37.08448 | 26.77991 | 11791 ft | 346 kts | 7° |
| 2026-05-06 11:44 | 37.10836 | 26.78453 | 12320 ft | 348 kts | 7° |
| 2026-05-06 11:44 | 37.13211 | 26.78892 | 12834 ft | 351 kts | 6° |
| 2026-05-06 11:44 | 37.15635 | 26.79330 | 13356 ft | 353 kts | 6° |
| 2026-05-06 11:45 | 37.18072 | 26.79771 | 13875 ft | 355 kts | 6° |
| 2026-05-06 11:45 | 37.20525 | 26.80219 | 14334 ft | 358 kts | 6° |
| 2026-05-06 11:45 | 37.22997 | 26.80676 | 14781 ft | 360 kts | 6° |
| 2026-05-06 11:45 | 37.25484 | 26.81136 | 15220 ft | 363 kts | 6° |
| 2026-05-06 11:46 | 37.27991 | 26.81599 | 15667 ft | 365 kts | 6° |
| 2026-05-06 11:46 | 37.30513 | 26.82069 | 16106 ft | 368 kts | 6° |
| 2026-05-06 11:46 | 37.33058 | 26.82547 | 16543 ft | 371 kts | 6° |
| 2026-05-06 11:46 | 37.35620 | 26.82959 | 16960 ft | 372 kts | 0° |
| 2026-05-06 11:47 | 37.38198 | 26.82789 | 17370 ft | 371 kts | 348° |
| 2026-05-06 11:47 | 37.40686 | 26.81925 | 17769 ft | 372 kts | 337° |
| 2026-05-06 11:47 | 37.42970 | 26.80404 | 18166 ft | 373 kts | 325° |
| 2026-05-06 11:47 | 37.44986 | 26.78342 | 18538 ft | 375 kts | 319° |
| 2026-05-06 11:48 | 37.46965 | 26.76184 | 18892 ft | 377 kts | 319° |
| 2026-05-06 11:48 | 37.48954 | 26.74028 | 19254 ft | 379 kts | 319° |
| 2026-05-06 11:48 | 37.50960 | 26.71865 | 19602 ft | 380 kts | 319° |
| 2026-05-06 11:48 | 37.52974 | 26.69693 | 19950 ft | 382 kts | 319° |
| 2026-05-06 11:49 | 37.54994 | 26.67512 | 20299 ft | 384 kts | 319° |
| 2026-05-06 11:49 | 37.57023 | 26.65317 | 20653 ft | 385 kts | 319° |
| 2026-05-06 11:49 | 37.59061 | 26.63112 | 21003 ft | 387 kts | 319° |
| 2026-05-06 11:49 | 37.61080 | 26.60928 | 21348 ft | 388 kts | 319° |
| 2026-05-06 11:50 | 37.63134 | 26.58703 | 21691 ft | 390 kts | 319° |
| 2026-05-06 11:50 | 37.65195 | 26.56466 | 22017 ft | 392 kts | 319° |
| 2026-05-06 11:50 | 37.67265 | 26.54214 | 22346 ft | 394 kts | 319° |
| 2026-05-06 11:50 | 37.69340 | 26.51953 | 22684 ft | 395 kts | 319° |
| 2026-05-06 11:51 | 37.71429 | 26.49684 | 23006 ft | 397 kts | 319° |
| 2026-05-06 11:51 | 37.73529 | 26.47408 | 23332 ft | 399 kts | 319° |
| 2026-05-06 11:51 | 37.75640 | 26.45119 | 23651 ft | 400 kts | 319° |
| 2026-05-06 11:51 | 37.77754 | 26.42816 | 23925 ft | 402 kts | 319° |
| 2026-05-06 11:52 | 37.79870 | 26.40507 | 24210 ft | 403 kts | 319° |
| 2026-05-06 11:52 | 37.81993 | 26.38189 | 24510 ft | 404 kts | 319° |
| 2026-05-06 11:52 | 37.84121 | 26.35867 | 24804 ft | 404 kts | 319° |
| 2026-05-06 11:52 | 37.86254 | 26.33539 | 25095 ft | 405 kts | 319° |
| 2026-05-06 11:53 | 37.88389 | 26.31205 | 25381 ft | 406 kts | 319° |
| 2026-05-06 11:53 | 37.90523 | 26.28865 | 25665 ft | 407 kts | 319° |
| 2026-05-06 11:53 | 37.92662 | 26.26514 | 25949 ft | 407 kts | 319° |
| 2026-05-06 11:53 | 37.94803 | 26.24159 | 26201 ft | 408 kts | 319° |
| 2026-05-06 11:54 | 37.96951 | 26.21795 | 26463 ft | 409 kts | 319° |
| 2026-05-06 11:54 | 37.99104 | 26.19424 | 26726 ft | 410 kts | 319° |
| 2026-05-06 11:54 | 38.01260 | 26.17048 | 26985 ft | 411 kts | 319° |
| 2026-05-06 11:54 | 38.03424 | 26.14662 | 27241 ft | 412 kts | 319° |
| 2026-05-06 11:55 | 38.05562 | 26.12306 | 27482 ft | 413 kts | 319° |
| 2026-05-06 11:55 | 38.07732 | 26.09912 | 27714 ft | 414 kts | 319° |
| 2026-05-06 11:55 | 38.09909 | 26.07509 | 27943 ft | 415 kts | 319° |
| 2026-05-06 11:55 | 38.12091 | 26.05100 | 28169 ft | 416 kts | 319° |
| 2026-05-06 11:56 | 38.14270 | 26.02688 | 28406 ft | 416 kts | 319° |
| 2026-05-06 11:56 | 38.16450 | 26.00269 | 28611 ft | 416 kts | 319° |
| 2026-05-06 11:56 | 38.18628 | 25.97848 | 28814 ft | 416 kts | 319° |
| 2026-05-06 11:56 | 38.20800 | 25.95431 | 29094 ft | 414 kts | 319° |
| 2026-05-06 11:57 | 38.22968 | 25.93019 | 29303 ft | 415 kts | 319° |
| 2026-05-06 11:57 | 38.25141 | 25.90605 | 29499 ft | 415 kts | 319° |
| 2026-05-06 11:57 | 38.27347 | 25.88242 | 29755 ft | 414 kts | 321° |
| 2026-05-06 11:57 | 38.29603 | 25.85968 | 30028 ft | 413 kts | 322° |
| 2026-05-06 11:58 | 38.31878 | 25.83755 | 30280 ft | 412 kts | 323° |
| 2026-05-06 11:58 | 38.34161 | 25.81559 | 30501 ft | 411 kts | 323° |
| 2026-05-06 11:58 | 38.36434 | 25.79360 | 30709 ft | 410 kts | 322° |
| 2026-05-06 11:58 | 38.38695 | 25.77145 | 30920 ft | 409 kts | 322° |
| 2026-05-06 11:59 | 38.40941 | 25.74919 | 31133 ft | 409 kts | 322° |
| 2026-05-06 11:59 | 38.42422 | 25.73441 | 31280 ft | 408 kts | 322° |
| 2026-05-06 11:59 | 38.44650 | 25.71207 | 31492 ft | 407 kts | 322° |
| 2026-05-06 11:59 | 38.46871 | 25.68975 | 31696 ft | 406 kts | 322° |
| 2026-05-06 12:00 | 38.49089 | 25.66745 | 31899 ft | 406 kts | 322° |
| 2026-05-06 12:00 | 38.51305 | 25.64519 | 32059 ft | 406 kts | 322° |
| 2026-05-06 12:00 | 38.55718 | 25.60094 | 32101 ft | 402 kts | 321° |
| 2026-05-06 12:01 | 38.60117 | 25.55683 | 32098 ft | 402 kts | 321° |
| 2026-05-06 12:01 | 38.64508 | 25.51270 | 32098 ft | 402 kts | 321° |
| 2026-05-06 12:02 | 38.68898 | 25.46845 | 32101 ft | 401 kts | 321° |
| 2026-05-06 12:02 | 38.73278 | 25.42423 | 32102 ft | 401 kts | 321° |
| 2026-05-06 12:03 | 38.77655 | 25.37993 | 32101 ft | 401 kts | 321° |
| 2026-05-06 12:03 | 38.82006 | 25.33581 | 32105 ft | 402 kts | 321° |
| 2026-05-06 12:04 | 38.86393 | 25.29135 | 32087 ft | 403 kts | 321° |
| 2026-05-06 12:04 | 38.90791 | 25.24670 | 32094 ft | 403 kts | 321° |
| 2026-05-06 12:05 | 38.95192 | 25.20191 | 32111 ft | 404 kts | 321° |
| 2026-05-06 12:05 | 38.99600 | 25.15708 | 32115 ft | 404 kts | 321° |
| 2026-05-06 12:06 | 39.03999 | 25.11222 | 32117 ft | 404 kts | 321° |
| 2026-05-06 12:06 | 39.08392 | 25.06729 | 32117 ft | 403 kts | 321° |
| 2026-05-06 12:07 | 39.12784 | 25.02230 | 32122 ft | 404 kts | 321° |
| 2026-05-06 12:07 | 39.14989 | 24.99970 | 32228 ft | 406 kts | 321° |
| 2026-05-06 12:07 | 39.17201 | 24.97696 | 32357 ft | 407 kts | 321° |
| 2026-05-06 12:08 | 39.19419 | 24.95412 | 32499 ft | 408 kts | 321° |
| 2026-05-06 12:08 | 39.21637 | 24.93126 | 32671 ft | 408 kts | 321° |
| 2026-05-06 12:08 | 39.23859 | 24.90841 | 32875 ft | 408 kts | 321° |
| 2026-05-06 12:08 | 39.26076 | 24.88562 | 33067 ft | 407 kts | 321° |
| 2026-05-06 12:09 | 39.28287 | 24.86285 | 33271 ft | 407 kts | 321° |
| 2026-05-06 12:09 | 39.30498 | 24.84007 | 33455 ft | 406 kts | 321° |
| 2026-05-06 12:09 | 39.32701 | 24.81732 | 33641 ft | 406 kts | 321° |
| 2026-05-06 12:09 | 39.34867 | 24.79489 | 33816 ft | 405 kts | 321° |
| 2026-05-06 12:10 | 39.37036 | 24.77242 | 34015 ft | 405 kts | 321° |
| 2026-05-06 12:10 | 39.39261 | 24.74936 | 34087 ft | 405 kts | 321° |
| 2026-05-06 12:10 | 39.43631 | 24.70413 | 34090 ft | 405 kts | 321° |
| 2026-05-06 12:11 | 39.48023 | 24.65858 | 34086 ft | 405 kts | 321° |
| 2026-05-06 12:11 | 39.52410 | 24.61303 | 34083 ft | 404 kts | 321° |
| 2026-05-06 12:12 | 39.56788 | 24.56744 | 34083 ft | 404 kts | 321° |
| 2026-05-06 12:12 | 39.61163 | 24.52175 | 34088 ft | 404 kts | 321° |
| 2026-05-06 12:13 | 39.65541 | 24.47600 | 34088 ft | 404 kts | 321° |
| 2026-05-06 12:13 | 39.69928 | 24.43019 | 34092 ft | 405 kts | 321° |
| 2026-05-06 12:14 | 39.74310 | 24.38428 | 34089 ft | 405 kts | 321° |
| 2026-05-06 12:14 | 39.78694 | 24.33823 | 34092 ft | 406 kts | 321° |
| 2026-05-06 12:15 | 39.83082 | 24.29200 | 34093 ft | 406 kts | 321° |
| 2026-05-06 12:15 | 39.87473 | 24.24573 | 34095 ft | 406 kts | 321° |
| 2026-05-06 12:16 | 39.91867 | 24.19932 | 34099 ft | 407 kts | 321° |
| 2026-05-06 12:16 | 39.96259 | 24.15295 | 34100 ft | 407 kts | 321° |
| 2026-05-06 12:17 | 40.00620 | 24.10670 | 34100 ft | 407 kts | 321° |
| 2026-05-06 12:17 | 40.05007 | 24.06008 | 34090 ft | 407 kts | 320° |
| 2026-05-06 12:18 | 40.09403 | 24.01344 | 34088 ft | 408 kts | 320° |
| 2026-05-06 12:18 | 40.13804 | 23.96663 | 34091 ft | 408 kts | 320° |
| 2026-05-06 12:19 | 40.18203 | 23.91971 | 34087 ft | 408 kts | 320° |
| 2026-05-06 12:19 | 40.22605 | 23.87272 | 34090 ft | 409 kts | 320° |
| 2026-05-06 12:20 | 40.27006 | 23.82562 | 34091 ft | 409 kts | 320° |
| 2026-05-06 12:20 | 40.31409 | 23.77849 | 34094 ft | 409 kts | 320° |
| 2026-05-06 12:21 | 40.35807 | 23.73124 | 34070 ft | 409 kts | 320° |
| 2026-05-06 12:21 | 40.40209 | 23.68376 | 34071 ft | 410 kts | 320° |
| 2026-05-06 12:22 | 40.44617 | 23.63611 | 34091 ft | 411 kts | 320° |
| 2026-05-06 12:22 | 40.49035 | 23.58849 | 34079 ft | 411 kts | 320° |
| 2026-05-06 12:23 | 40.53459 | 23.54082 | 34082 ft | 411 kts | 320° |
| 2026-05-06 12:23 | 40.57875 | 23.49296 | 34091 ft | 411 kts | 320° |
| 2026-05-06 12:24 | 40.62284 | 23.44502 | 34085 ft | 411 kts | 320° |
| 2026-05-06 12:24 | 40.66673 | 23.39739 | 34054 ft | 412 kts | 319° |
| 2026-05-06 12:25 | 40.71095 | 23.34929 | 34050 ft | 413 kts | 319° |
| 2026-05-06 12:25 | 40.75521 | 23.30099 | 34061 ft | 413 kts | 319° |
| 2026-05-06 12:26 | 40.79946 | 23.25262 | 34059 ft | 413 kts | 319° |
| 2026-05-06 12:26 | 40.84375 | 23.20415 | 34065 ft | 414 kts | 319° |
| 2026-05-06 12:27 | 40.88806 | 23.15564 | 34065 ft | 414 kts | 319° |
| 2026-05-06 12:27 | 40.93234 | 23.10703 | 34073 ft | 414 kts | 319° |
| 2026-05-06 12:28 | 40.97658 | 23.05829 | 34053 ft | 414 kts | 319° |
| 2026-05-06 12:28 | 41.02060 | 23.00964 | 34048 ft | 415 kts | 319° |
| 2026-05-06 12:29 | 41.06500 | 22.96069 | 34060 ft | 415 kts | 319° |
| 2026-05-06 12:29 | 41.10937 | 22.91162 | 34068 ft | 416 kts | 319° |
| 2026-05-06 12:30 | 41.15367 | 22.86238 | 34063 ft | 415 kts | 319° |
| 2026-05-06 12:30 | 41.19797 | 22.81309 | 34056 ft | 416 kts | 319° |
| 2026-05-06 12:31 | 41.24225 | 22.76378 | 34040 ft | 415 kts | 316° |
| 2026-05-06 12:31 | 41.28176 | 22.70802 | 34046 ft | 415 kts | 311° |
| 2026-05-06 12:32 | 41.32031 | 22.65161 | 34050 ft | 415 kts | 311° |
| 2026-05-06 12:32 | 41.35912 | 22.59473 | 34062 ft | 415 kts | 311° |
| 2026-05-06 12:33 | 41.39794 | 22.53774 | 34047 ft | 416 kts | 311° |
| 2026-05-06 12:33 | 41.43678 | 22.48061 | 34060 ft | 416 kts | 311° |
| 2026-05-06 12:34 | 41.47560 | 22.42341 | 34040 ft | 416 kts | 311° |
| 2026-05-06 12:34 | 41.51445 | 22.36609 | 34042 ft | 416 kts | 311° |
| 2026-05-06 12:35 | 41.55328 | 22.30871 | 34035 ft | 417 kts | 311° |
| 2026-05-06 12:35 | 41.59211 | 22.25122 | 34035 ft | 417 kts | 310° |
| 2026-05-06 12:36 | 41.63063 | 22.19396 | 34044 ft | 417 kts | 310° |
| 2026-05-06 12:36 | 41.66936 | 22.13625 | 34038 ft | 417 kts | 310° |
| 2026-05-06 12:37 | 41.70816 | 22.07852 | 34032 ft | 417 kts | 310° |
| 2026-05-06 12:37 | 41.74697 | 22.02071 | 34031 ft | 418 kts | 310° |
| 2026-05-06 12:38 | 41.78569 | 21.96266 | 34032 ft | 418 kts | 310° |
| 2026-05-06 12:38 | 41.82436 | 21.90451 | 34036 ft | 418 kts | 310° |
| 2026-05-06 12:39 | 41.86308 | 21.84634 | 34042 ft | 418 kts | 310° |
| 2026-05-06 12:39 | 41.90178 | 21.78813 | 34035 ft | 418 kts | 310° |
| 2026-05-06 12:40 | 41.94020 | 21.73013 | 34048 ft | 419 kts | 310° |
| 2026-05-06 12:40 | 41.97889 | 21.67166 | 34046 ft | 419 kts | 310° |
| 2026-05-06 12:41 | 42.01758 | 21.61309 | 34046 ft | 419 kts | 310° |
| 2026-05-06 12:41 | 42.05625 | 21.55445 | 34033 ft | 419 kts | 310° |
| 2026-05-06 12:42 | 42.09492 | 21.49571 | 34035 ft | 419 kts | 310° |
| 2026-05-06 12:42 | 42.13358 | 21.43688 | 34035 ft | 419 kts | 310° |
| 2026-05-06 12:43 | 42.17204 | 21.37784 | 34038 ft | 419 kts | 309° |
| 2026-05-06 12:43 | 42.20985 | 21.31802 | 34050 ft | 419 kts | 308° |
| 2026-05-06 12:44 | 42.24744 | 21.25792 | 34055 ft | 419 kts | 308° |
| 2026-05-06 12:44 | 42.28514 | 21.19793 | 34056 ft | 419 kts | 308° |
| 2026-05-06 12:45 | 42.32284 | 21.13798 | 34061 ft | 419 kts | 308° |
| 2026-05-06 12:46 | 42.37934 | 21.04766 | 34060 ft | 420 kts | 308° |
| 2026-05-06 12:46 | 42.41679 | 20.98764 | 34064 ft | 420 kts | 308° |
| 2026-05-06 12:47 | 42.45448 | 20.92719 | 34069 ft | 420 kts | 308° |
| 2026-05-06 12:47 | 42.49224 | 20.86665 | 34075 ft | 420 kts | 308° |
| 2026-05-06 12:48 | 42.52991 | 20.80608 | 34068 ft | 420 kts | 308° |
| 2026-05-06 12:48 | 42.56748 | 20.74526 | 34060 ft | 421 kts | 308° |
| 2026-05-06 12:49 | 42.60507 | 20.68432 | 34051 ft | 421 kts | 308° |
| 2026-05-06 12:49 | 42.64272 | 20.62331 | 34042 ft | 422 kts | 308° |
| 2026-05-06 12:50 | 42.68041 | 20.56214 | 34032 ft | 422 kts | 308° |
| 2026-05-06 12:50 | 42.71799 | 20.50085 | 34034 ft | 422 kts | 308° |
| 2026-05-06 12:51 | 42.75562 | 20.43947 | 34044 ft | 423 kts | 307° |
| 2026-05-06 12:51 | 42.79329 | 20.37807 | 34033 ft | 422 kts | 307° |
| 2026-05-06 12:52 | 42.83085 | 20.31646 | 34030 ft | 423 kts | 307° |
| 2026-05-06 12:52 | 42.86813 | 20.25518 | 34025 ft | 423 kts | 307° |
| 2026-05-06 12:53 | 42.90567 | 20.19343 | 34023 ft | 423 kts | 307° |
| 2026-05-06 12:53 | 42.94316 | 20.13161 | 34016 ft | 423 kts | 306° |
| 2026-05-06 12:54 | 42.98066 | 20.06975 | 34012 ft | 423 kts | 306° |
| 2026-05-06 12:54 | 43.01818 | 20.00770 | 33997 ft | 423 kts | 306° |
| 2026-05-06 12:55 | 43.05565 | 19.94559 | 34001 ft | 424 kts | 306° |
| 2026-05-06 12:55 | 43.09314 | 19.88336 | 33999 ft | 424 kts | 306° |
| 2026-05-06 12:56 | 43.13055 | 19.82100 | 34004 ft | 424 kts | 306° |
| 2026-05-06 12:56 | 43.16799 | 19.75853 | 33996 ft | 425 kts | 306° |
| 2026-05-06 12:57 | 43.19915 | 19.70643 | 33993 ft | 425 kts | 306° |
| 2026-05-06 12:57 | 43.24270 | 19.63345 | 33994 ft | 425 kts | 306° |
| 2026-05-06 12:58 | 43.28018 | 19.57061 | 34002 ft | 426 kts | 306° |
| 2026-05-06 12:58 | 43.31762 | 19.50755 | 34014 ft | 426 kts | 306° |
| 2026-05-06 12:59 | 43.34890 | 19.45460 | 34015 ft | 426 kts | 306° |
| 2026-05-06 12:59 | 43.38602 | 19.39176 | 34013 ft | 426 kts | 306° |
| 2026-05-06 13:00 | 43.42344 | 19.32846 | 34002 ft | 427 kts | 306° |
| 2026-05-06 13:00 | 43.46107 | 19.26460 | 34003 ft | 426 kts | 306° |
| 2026-05-06 13:01 | 43.49839 | 19.20113 | 34007 ft | 427 kts | 306° |
| 2026-05-06 13:01 | 43.53555 | 19.13785 | 33995 ft | 428 kts | 306° |
| 2026-05-06 13:02 | 43.57300 | 19.07382 | 34004 ft | 429 kts | 306° |
| 2026-05-06 13:02 | 43.61043 | 19.00970 | 34012 ft | 429 kts | 306° |
| 2026-05-06 13:03 | 43.64783 | 18.94553 | 34004 ft | 428 kts | 306° |
| 2026-05-06 13:03 | 43.68519 | 18.88126 | 34005 ft | 430 kts | 306° |
| 2026-05-06 13:04 | 43.72264 | 18.81675 | 34006 ft | 431 kts | 306° |
| 2026-05-06 13:04 | 43.76010 | 18.75201 | 34004 ft | 431 kts | 306° |
| 2026-05-06 13:05 | 43.79755 | 18.68713 | 34001 ft | 432 kts | 306° |
| 2026-05-06 13:05 | 43.83500 | 18.62210 | 33994 ft | 432 kts | 306° |
| 2026-05-06 13:06 | 43.87249 | 18.55700 | 33999 ft | 432 kts | 306° |
| 2026-05-06 13:06 | 43.90993 | 18.49180 | 33996 ft | 432 kts | 306° |
| 2026-05-06 13:07 | 43.94705 | 18.42631 | 33997 ft | 431 kts | 304° |
| 2026-05-06 13:07 | 43.98258 | 18.35999 | 33991 ft | 431 kts | 303° |
| 2026-05-06 13:08 | 44.01774 | 18.29268 | 33989 ft | 431 kts | 303° |
| 2026-05-06 13:08 | 44.05303 | 18.22538 | 33986 ft | 431 kts | 303° |
| 2026-05-06 13:09 | 44.08856 | 18.15830 | 33975 ft | 430 kts | 303° |
| 2026-05-06 13:09 | 44.12405 | 18.09130 | 33972 ft | 430 kts | 303° |
| 2026-05-06 13:10 | 44.15945 | 18.02411 | 33981 ft | 430 kts | 303° |
| 2026-05-06 13:10 | 44.19477 | 17.95676 | 33967 ft | 431 kts | 303° |
| 2026-05-06 13:11 | 44.23007 | 17.88929 | 33964 ft | 431 kts | 303° |
| 2026-05-06 13:11 | 44.26533 | 17.82179 | 33964 ft | 431 kts | 303° |
| 2026-05-06 13:12 | 44.30038 | 17.75460 | 33952 ft | 431 kts | 303° |
| 2026-05-06 13:12 | 44.33567 | 17.68684 | 33942 ft | 432 kts | 303° |
| 2026-05-06 13:13 | 44.37103 | 17.61880 | 33948 ft | 433 kts | 303° |
| 2026-05-06 13:13 | 44.40640 | 17.55059 | 33950 ft | 433 kts | 302° |
| 2026-05-06 13:14 | 44.44172 | 17.48231 | 33962 ft | 433 kts | 302° |
| 2026-05-06 13:14 | 44.47694 | 17.41389 | 33953 ft | 433 kts | 302° |
| 2026-05-06 13:15 | 44.51218 | 17.34530 | 33949 ft | 434 kts | 302° |
| 2026-05-06 13:15 | 44.54742 | 17.27674 | 33939 ft | 433 kts | 302° |
| 2026-05-06 13:16 | 44.58259 | 17.20810 | 33947 ft | 433 kts | 302° |
| 2026-05-06 13:16 | 44.61765 | 17.13927 | 33947 ft | 434 kts | 301° |
| 2026-05-06 13:17 | 44.65272 | 17.07030 | 33934 ft | 434 kts | 301° |
| 2026-05-06 13:17 | 44.68780 | 17.00126 | 33930 ft | 434 kts | 301° |
| 2026-05-06 13:18 | 44.72081 | 16.93062 | 33942 ft | 430 kts | 295° |
| 2026-05-06 13:18 | 44.74995 | 16.85718 | 33959 ft | 429 kts | 295° |
| 2026-05-06 13:19 | 44.77888 | 16.78437 | 33939 ft | 428 kts | 295° |
| 2026-05-06 13:19 | 44.80797 | 16.71122 | 33940 ft | 428 kts | 295° |
| 2026-05-06 13:20 | 44.83694 | 16.63813 | 33947 ft | 427 kts | 295° |
| 2026-05-06 13:20 | 44.86588 | 16.56494 | 33963 ft | 427 kts | 294° |
| 2026-05-06 13:21 | 44.89473 | 16.49172 | 33949 ft | 427 kts | 294° |
| 2026-05-06 13:21 | 44.92347 | 16.41848 | 33948 ft | 427 kts | 294° |
| 2026-05-06 13:22 | 44.95210 | 16.34513 | 33956 ft | 426 kts | 294° |
| 2026-05-06 13:22 | 44.97982 | 16.27130 | 33951 ft | 424 kts | 291° |
| 2026-05-06 13:23 | 45.00397 | 16.19547 | 33975 ft | 423 kts | 288° |
| 2026-05-06 13:23 | 45.02707 | 16.11895 | 33966 ft | 423 kts | 288° |
| 2026-05-06 13:24 | 45.05067 | 16.04270 | 33959 ft | 424 kts | 289° |
| 2026-05-06 13:24 | 45.07471 | 15.96664 | 33961 ft | 423 kts | 289° |
| 2026-05-06 13:25 | 45.09857 | 15.89105 | 33985 ft | 423 kts | 288° |
| 2026-05-06 13:25 | 45.12248 | 15.81494 | 33971 ft | 423 kts | 288° |
| 2026-05-06 13:26 | 45.14634 | 15.73872 | 33960 ft | 423 kts | 288° |
| 2026-05-06 13:26 | 45.17012 | 15.66241 | 33957 ft | 424 kts | 288° |
| 2026-05-06 13:27 | 45.19389 | 15.58604 | 33956 ft | 424 kts | 288° |
| 2026-05-06 13:27 | 45.21757 | 15.50953 | 33970 ft | 424 kts | 288° |
| 2026-05-06 13:28 | 45.24106 | 15.43287 | 33965 ft | 424 kts | 288° |
| 2026-05-06 13:28 | 45.26463 | 15.35622 | 33961 ft | 424 kts | 288° |
| 2026-05-06 13:29 | 45.28845 | 15.27970 | 33962 ft | 425 kts | 289° |
| 2026-05-06 13:29 | 45.31422 | 15.20404 | 33958 ft | 426 kts | 290° |
| 2026-05-06 13:30 | 45.34077 | 15.12873 | 33968 ft | 426 kts | 290° |
| 2026-05-06 13:30 | 45.36696 | 15.05329 | 33961 ft | 425 kts | 290° |
| 2026-05-06 13:31 | 45.39267 | 14.97752 | 33982 ft | 425 kts | 289° |
| 2026-05-06 13:31 | 45.41817 | 14.90174 | 33983 ft | 425 kts | 289° |
| 2026-05-06 13:32 | 45.44379 | 14.82586 | 33986 ft | 426 kts | 289° |
| 2026-05-06 13:32 | 45.46944 | 14.74980 | 33986 ft | 426 kts | 289° |
| 2026-05-06 13:33 | 45.49486 | 14.67406 | 33972 ft | 426 kts | 289° |
| 2026-05-06 13:33 | 45.52040 | 14.59762 | 33978 ft | 427 kts | 289° |
| 2026-05-06 13:34 | 45.54591 | 14.52105 | 33993 ft | 428 kts | 289° |
| 2026-05-06 13:34 | 45.57150 | 14.44431 | 33980 ft | 429 kts | 289° |
| 2026-05-06 13:35 | 45.59713 | 14.36728 | 33980 ft | 430 kts | 289° |
| 2026-05-06 13:35 | 45.62265 | 14.29013 | 33978 ft | 430 kts | 289° |
| 2026-05-06 13:36 | 45.64817 | 14.21283 | 33977 ft | 430 kts | 289° |
| 2026-05-06 13:36 | 45.67357 | 14.13556 | 34002 ft | 429 kts | 289° |
| 2026-05-06 13:37 | 45.69890 | 14.05832 | 33989 ft | 428 kts | 289° |
| 2026-05-06 13:37 | 45.72414 | 13.98114 | 33984 ft | 428 kts | 289° |
| 2026-05-06 13:38 | 45.74935 | 13.90394 | 33973 ft | 428 kts | 289° |
| 2026-05-06 13:38 | 45.77433 | 13.82732 | 33961 ft | 425 kts | 288° |
| 2026-05-06 13:39 | 45.79920 | 13.75083 | 33964 ft | 424 kts | 288° |
| 2026-05-06 13:39 | 45.82388 | 13.67425 | 33962 ft | 423 kts | 288° |
| 2026-05-06 13:40 | 45.84851 | 13.59763 | 33959 ft | 423 kts | 288° |
| 2026-05-06 13:40 | 45.87412 | 13.52134 | 33962 ft | 425 kts | 290° |
| 2026-05-06 13:41 | 45.90090 | 13.44569 | 33979 ft | 425 kts | 290° |
| 2026-05-06 13:41 | 45.92754 | 13.37008 | 33972 ft | 424 kts | 289° |
| 2026-05-06 13:42 | 45.95375 | 13.29429 | 33969 ft | 423 kts | 289° |
| 2026-05-06 13:42 | 45.97976 | 13.21857 | 33960 ft | 422 kts | 289° |
| 2026-05-06 13:43 | 46.00578 | 13.14284 | 33971 ft | 422 kts | 289° |
| 2026-05-06 13:43 | 46.03175 | 13.06706 | 33954 ft | 422 kts | 289° |
| 2026-05-06 13:44 | 46.05765 | 12.99126 | 33948 ft | 421 kts | 289° |
| 2026-05-06 13:44 | 46.08316 | 12.91546 | 33931 ft | 419 kts | 287° |
| 2026-05-06 13:45 | 46.10728 | 12.83914 | 33932 ft | 418 kts | 287° |
| 2026-05-06 13:45 | 46.14293 | 12.72406 | 33934 ft | 420 kts | 286° |
| 2026-05-06 13:46 | 46.16698 | 12.64708 | 33929 ft | 422 kts | 286° |
| 2026-05-06 13:46 | 46.19106 | 12.56985 | 33925 ft | 422 kts | 286° |
| 2026-05-06 13:47 | 46.21516 | 12.49247 | 33920 ft | 423 kts | 286° |
| 2026-05-06 13:47 | 46.23912 | 12.41552 | 33931 ft | 423 kts | 286° |
| 2026-05-06 13:48 | 46.26314 | 12.33807 | 33928 ft | 422 kts | 286° |
| 2026-05-06 13:48 | 46.28716 | 12.26053 | 33923 ft | 423 kts | 286° |
| 2026-05-06 13:49 | 46.31114 | 12.18288 | 33921 ft | 423 kts | 286° |
| 2026-05-06 13:49 | 46.33500 | 12.10517 | 33921 ft | 422 kts | 285° |
| 2026-05-06 13:50 | 46.35866 | 12.02760 | 33931 ft | 422 kts | 285° |
| 2026-05-06 13:50 | 46.38237 | 11.94989 | 33923 ft | 421 kts | 285° |
| 2026-05-06 13:51 | 46.40207 | 11.88547 | 33921 ft | 420 kts | 285° |
| 2026-05-06 13:51 | 46.42518 | 11.80816 | 33911 ft | 415 kts | 281° |
| 2026-05-06 13:52 | 46.44329 | 11.72934 | 33909 ft | 413 kts | 279° |
| 2026-05-06 13:52 | 46.46130 | 11.65038 | 33899 ft | 412 kts | 279° |
| 2026-05-06 13:53 | 46.47919 | 11.57139 | 33893 ft | 412 kts | 279° |
| 2026-05-06 13:53 | 46.49705 | 11.49253 | 33884 ft | 411 kts | 279° |
| 2026-05-06 13:54 | 46.51495 | 11.41371 | 33882 ft | 411 kts | 279° |
| 2026-05-06 13:54 | 46.53269 | 11.33476 | 33910 ft | 411 kts | 279° |
| 2026-05-06 13:55 | 46.55036 | 11.25575 | 33896 ft | 411 kts | 279° |
| 2026-05-06 13:55 | 46.56801 | 11.17679 | 33903 ft | 410 kts | 279° |
| 2026-05-06 13:56 | 46.58554 | 11.09793 | 33911 ft | 410 kts | 278° |
| 2026-05-06 13:56 | 46.60296 | 11.01897 | 33905 ft | 410 kts | 279° |
| 2026-05-06 13:57 | 46.62041 | 10.94005 | 33930 ft | 410 kts | 278° |
| 2026-05-06 13:57 | 46.63783 | 10.86095 | 33916 ft | 411 kts | 278° |
| 2026-05-06 13:58 | 46.65522 | 10.78167 | 33905 ft | 411 kts | 278° |
| 2026-05-06 13:58 | 46.67253 | 10.70221 | 33890 ft | 412 kts | 278° |
| 2026-05-06 13:59 | 46.68978 | 10.62269 | 33898 ft | 412 kts | 278° |
| 2026-05-06 13:59 | 46.70690 | 10.54376 | 33867 ft | 410 kts | 279° |
| 2026-05-06 14:00 | 46.72405 | 10.46467 | 33861 ft | 410 kts | 278° |
| 2026-05-06 14:00 | 46.74233 | 10.38575 | 33848 ft | 416 kts | 284° |
| 2026-05-06 14:01 | 46.76493 | 10.30796 | 33849 ft | 417 kts | 284° |
| 2026-05-06 14:01 | 46.78745 | 10.22983 | 33858 ft | 418 kts | 284° |
| 2026-05-06 14:02 | 46.80987 | 10.15153 | 33884 ft | 419 kts | 284° |
| 2026-05-06 14:02 | 46.83233 | 10.07292 | 33865 ft | 420 kts | 284° |
| 2026-05-06 14:03 | 46.85477 | 9.99421 | 33850 ft | 419 kts | 284° |
| 2026-05-06 14:03 | 46.87703 | 9.91539 | 33843 ft | 420 kts | 284° |
| 2026-05-06 14:04 | 46.89934 | 9.83651 | 33871 ft | 420 kts | 284° |
| 2026-05-06 14:04 | 46.92168 | 9.75736 | 33847 ft | 421 kts | 284° |
| 2026-05-06 14:05 | 46.94412 | 9.67812 | 33844 ft | 422 kts | 284° |
| 2026-05-06 14:05 | 46.96638 | 9.59867 | 33840 ft | 422 kts | 284° |
| 2026-05-06 14:06 | 46.98858 | 9.51910 | 33851 ft | 422 kts | 284° |
| 2026-05-06 14:06 | 47.01077 | 9.43947 | 33870 ft | 423 kts | 283° |
| 2026-05-06 14:07 | 47.03279 | 9.36008 | 33868 ft | 424 kts | 283° |
| 2026-05-06 14:07 | 47.05493 | 9.27991 | 33865 ft | 424 kts | 284° |
| 2026-05-06 14:08 | 47.07710 | 9.19969 | 33876 ft | 424 kts | 284° |
| 2026-05-06 14:08 | 47.09918 | 9.11929 | 33882 ft | 425 kts | 283° |
| 2026-05-06 14:09 | 47.12127 | 9.03861 | 33889 ft | 426 kts | 284° |
| 2026-05-06 14:09 | 47.14328 | 8.95776 | 33870 ft | 426 kts | 284° |
| 2026-05-06 14:10 | 47.16515 | 8.87666 | 33865 ft | 427 kts | 283° |
| 2026-05-06 14:10 | 47.18615 | 8.79506 | 33867 ft | 427 kts | 283° |
| 2026-05-06 14:11 | 47.20673 | 8.71300 | 33875 ft | 428 kts | 283° |
| 2026-05-06 14:11 | 47.22739 | 8.63068 | 33886 ft | 430 kts | 283° |
| 2026-05-06 14:12 | 47.24822 | 8.54802 | 33882 ft | 432 kts | 284° |
| 2026-05-06 14:12 | 47.26918 | 8.46503 | 33881 ft | 433 kts | 284° |
| 2026-05-06 14:13 | 47.28998 | 8.38250 | 33872 ft | 433 kts | 283° |
| 2026-05-06 14:13 | 47.31085 | 8.29933 | 33891 ft | 433 kts | 283° |
| 2026-05-06 14:14 | 47.33171 | 8.21566 | 33856 ft | 436 kts | 283° |
| 2026-05-06 14:14 | 47.35253 | 8.13157 | 33843 ft | 437 kts | 283° |
| 2026-05-06 14:15 | 47.37336 | 8.04714 | 33849 ft | 439 kts | 283° |
| 2026-05-06 14:15 | 47.39420 | 7.96251 | 33857 ft | 439 kts | 283° |
| 2026-05-06 14:16 | 47.41515 | 7.87715 | 33868 ft | 439 kts | 283° |
| 2026-05-06 14:16 | 47.43573 | 7.79285 | 33876 ft | 440 kts | 283° |
| 2026-05-06 14:17 | 47.45635 | 7.70781 | 33881 ft | 439 kts | 283° |
| 2026-05-06 14:17 | 47.47402 | 7.62195 | 33886 ft | 435 kts | 277° |
| 2026-05-06 14:18 | 47.48846 | 7.53519 | 33889 ft | 435 kts | 277° |
| 2026-05-06 14:18 | 47.50291 | 7.44826 | 33888 ft | 436 kts | 278° |
| 2026-05-06 14:19 | 47.51734 | 7.36108 | 33881 ft | 437 kts | 278° |
| 2026-05-06 14:19 | 47.53180 | 7.27367 | 33876 ft | 437 kts | 278° |
| 2026-05-06 14:20 | 47.54617 | 7.18619 | 33883 ft | 438 kts | 278° |
| 2026-05-06 14:20 | 47.56045 | 7.09854 | 33908 ft | 438 kts | 279° |
| 2026-05-06 14:21 | 47.57459 | 7.01126 | 33898 ft | 439 kts | 279° |
| 2026-05-06 14:21 | 47.58885 | 6.92318 | 33896 ft | 440 kts | 279° |
| 2026-05-06 14:22 | 47.60314 | 6.83491 | 33904 ft | 441 kts | 279° |
| 2026-05-06 14:22 | 47.61739 | 6.74651 | 33903 ft | 441 kts | 279° |
| 2026-05-06 14:23 | 47.63152 | 6.65791 | 33907 ft | 442 kts | 279° |
| 2026-05-06 14:23 | 47.64549 | 6.56909 | 33900 ft | 443 kts | 279° |
| 2026-05-06 14:24 | 47.65949 | 6.48010 | 33874 ft | 443 kts | 279° |
| 2026-05-06 14:24 | 47.67340 | 6.39101 | 33882 ft | 443 kts | 279° |
| 2026-05-06 14:25 | 47.68722 | 6.30180 | 33903 ft | 444 kts | 280° |
| 2026-05-06 14:25 | 47.70399 | 6.21332 | 33883 ft | 447 kts | 285° |
| 2026-05-06 14:26 | 47.72376 | 6.12574 | 33884 ft | 448 kts | 285° |
| 2026-05-06 14:26 | 47.74336 | 6.03799 | 33884 ft | 448 kts | 284° |
| 2026-05-06 14:27 | 47.76210 | 5.94963 | 33885 ft | 448 kts | 284° |
| 2026-05-06 14:27 | 47.78031 | 5.86172 | 33899 ft | 448 kts | 284° |
| 2026-05-06 14:28 | 47.79864 | 5.77322 | 33897 ft | 448 kts | 284° |
| 2026-05-06 14:28 | 47.81708 | 5.68465 | 33893 ft | 448 kts | 284° |
| 2026-05-06 14:29 | 47.83548 | 5.59609 | 33891 ft | 448 kts | 284° |
| 2026-05-06 14:29 | 47.85373 | 5.50738 | 33891 ft | 448 kts | 284° |
| 2026-05-06 14:30 | 47.87197 | 5.41854 | 33899 ft | 448 kts | 285° |
| 2026-05-06 14:30 | 47.89011 | 5.32961 | 33903 ft | 449 kts | 285° |
| 2026-05-06 14:31 | 47.91427 | 5.24388 | 33906 ft | 453 kts | 300° |
| 2026-05-06 14:31 | 47.95396 | 5.17067 | 33900 ft | 455 kts | 310° |
| 2026-05-06 14:32 | 47.99655 | 5.10062 | 33901 ft | 456 kts | 310° |
| 2026-05-06 14:32 | 48.03911 | 5.03027 | 33913 ft | 456 kts | 310° |
| 2026-05-06 14:33 | 48.08162 | 4.95987 | 33913 ft | 456 kts | 310° |
| 2026-05-06 14:33 | 48.12412 | 4.88927 | 33911 ft | 456 kts | 310° |
| 2026-05-06 14:34 | 48.16624 | 4.81901 | 33913 ft | 456 kts | 310° |
| 2026-05-06 14:34 | 48.20861 | 4.74817 | 33913 ft | 456 kts | 310° |
| 2026-05-06 14:35 | 48.25096 | 4.67736 | 33923 ft | 456 kts | 310° |
| 2026-05-06 14:35 | 48.29318 | 4.60653 | 33925 ft | 455 kts | 310° |
| 2026-05-06 14:36 | 48.33525 | 4.53568 | 33918 ft | 454 kts | 310° |
| 2026-05-06 14:36 | 48.37724 | 4.46478 | 33925 ft | 454 kts | 310° |
| 2026-05-06 14:37 | 48.41918 | 4.39378 | 33916 ft | 454 kts | 310° |
| 2026-05-06 14:37 | 48.46111 | 4.32270 | 33915 ft | 454 kts | 310° |
| 2026-05-06 14:38 | 48.50294 | 4.25153 | 33919 ft | 453 kts | 310° |
| 2026-05-06 14:38 | 48.54467 | 4.18039 | 33919 ft | 452 kts | 310° |
| 2026-05-06 14:39 | 48.58598 | 4.10969 | 33916 ft | 452 kts | 310° |
| 2026-05-06 14:39 | 48.62744 | 4.03845 | 33913 ft | 452 kts | 310° |
| 2026-05-06 14:40 | 48.66890 | 3.96705 | 33911 ft | 452 kts | 310° |
| 2026-05-06 14:40 | 48.71035 | 3.89551 | 33914 ft | 452 kts | 310° |
| 2026-05-06 14:41 | 48.75293 | 3.82546 | 33914 ft | 452 kts | 314° |
| 2026-05-06 14:41 | 48.79817 | 3.75914 | 33914 ft | 452 kts | 316° |
| 2026-05-06 14:42 | 48.84384 | 3.69352 | 33918 ft | 452 kts | 315° |
| 2026-05-06 14:42 | 48.88887 | 3.62698 | 33916 ft | 451 kts | 314° |
| 2026-05-06 14:43 | 48.93342 | 3.55976 | 33915 ft | 451 kts | 314° |
| 2026-05-06 14:43 | 48.97798 | 3.49245 | 33925 ft | 452 kts | 314° |
| 2026-05-06 14:44 | 49.01511 | 3.43647 | 33914 ft | 452 kts | 314° |
| 2026-05-06 14:45 | 49.08213 | 3.33528 | 33921 ft | 452 kts | 314° |
| 2026-05-06 14:45 | 49.12672 | 3.26780 | 33922 ft | 451 kts | 314° |
| 2026-05-06 14:46 | 49.17128 | 3.20016 | 33920 ft | 451 kts | 314° |
| 2026-05-06 14:46 | 49.21572 | 3.13240 | 33920 ft | 451 kts | 314° |
| 2026-05-06 14:47 | 49.26014 | 3.06450 | 33919 ft | 451 kts | 314° |
| 2026-05-06 14:47 | 49.30451 | 2.99649 | 33920 ft | 451 kts | 314° |
| 2026-05-06 14:48 | 49.34883 | 2.92837 | 33920 ft | 451 kts | 314° |
| 2026-05-06 14:48 | 49.39308 | 2.86011 | 33926 ft | 451 kts | 313° |
| 2026-05-06 14:49 | 49.43697 | 2.79227 | 33922 ft | 450 kts | 314° |
| 2026-05-06 14:49 | 49.48106 | 2.72398 | 33919 ft | 450 kts | 314° |
| 2026-05-06 14:50 | 49.52512 | 2.65556 | 33922 ft | 450 kts | 314° |
| 2026-05-06 14:50 | 49.56904 | 2.58700 | 33926 ft | 450 kts | 313° |
| 2026-05-06 14:51 | 49.61280 | 2.51810 | 33930 ft | 449 kts | 311° |
| 2026-05-06 14:51 | 49.65409 | 2.44584 | 33941 ft | 449 kts | 308° |
| 2026-05-06 14:52 | 49.69364 | 2.37129 | 33943 ft | 449 kts | 308° |
| 2026-05-06 14:52 | 49.73347 | 2.29682 | 33950 ft | 449 kts | 309° |
| 2026-05-06 14:53 | 49.77370 | 2.22331 | 33955 ft | 448 kts | 310° |
| 2026-05-06 14:53 | 49.81396 | 2.15007 | 33969 ft | 445 kts | 310° |
| 2026-05-06 14:54 | 49.85388 | 2.07691 | 33970 ft | 444 kts | 310° |
| 2026-05-06 14:54 | 49.89354 | 2.00361 | 33965 ft | 443 kts | 309° |
| 2026-05-06 14:55 | 49.93304 | 1.93053 | 33969 ft | 442 kts | 309° |
| 2026-05-06 14:55 | 49.97230 | 1.85777 | 33963 ft | 442 kts | 309° |
| 2026-05-06 14:56 | 50.01182 | 1.78426 | 32876 ft | 448 kts | 309° |
| 2026-05-06 14:56 | 50.03182 | 1.74698 | 32061 ft | 448 kts | 309° |
| 2026-05-06 14:56 | 50.05177 | 1.70972 | 31245 ft | 449 kts | 309° |
| 2026-05-06 14:56 | 50.07230 | 1.67325 | 30622 ft | 445 kts | 315° |
| 2026-05-06 14:57 | 50.09509 | 1.64108 | 30123 ft | 440 kts | 319° |
| 2026-05-06 14:57 | 50.11802 | 1.60998 | 29525 ft | 435 kts | 319° |
| 2026-05-06 14:57 | 50.14072 | 1.57922 | 28993 ft | 429 kts | 318° |
| 2026-05-06 14:57 | 50.16310 | 1.54886 | 28448 ft | 423 kts | 319° |
| 2026-05-06 14:58 | 50.18511 | 1.51891 | 27926 ft | 418 kts | 318° |
| 2026-05-06 14:58 | 50.20688 | 1.48926 | 27402 ft | 412 kts | 318° |
| 2026-05-06 14:58 | 50.22831 | 1.46007 | 26892 ft | 407 kts | 318° |
| 2026-05-06 14:58 | 50.24948 | 1.43119 | 26390 ft | 401 kts | 317° |
| 2026-05-06 14:59 | 50.27037 | 1.40263 | 25875 ft | 397 kts | 317° |
| 2026-05-06 14:59 | 50.29102 | 1.37438 | 25393 ft | 392 kts | 317° |
| 2026-05-06 14:59 | 50.31143 | 1.34638 | 24908 ft | 388 kts | 317° |
| 2026-05-06 14:59 | 50.33162 | 1.31867 | 24439 ft | 384 kts | 317° |
| 2026-05-06 15:00 | 50.35164 | 1.29123 | 23974 ft | 381 kts | 317° |
| 2026-05-06 15:00 | 50.37145 | 1.26407 | 23531 ft | 377 kts | 317° |
| 2026-05-06 15:00 | 50.39102 | 1.23713 | 23034 ft | 372 kts | 317° |
| 2026-05-06 15:00 | 50.41028 | 1.21049 | 22614 ft | 366 kts | 317° |
| 2026-05-06 15:01 | 50.42899 | 1.18460 | 22212 ft | 361 kts | 317° |
| 2026-05-06 15:01 | 50.44799 | 1.15826 | 21788 ft | 359 kts | 317° |
| 2026-05-06 15:01 | 50.46636 | 1.13278 | 21392 ft | 356 kts | 317° |
| 2026-05-06 15:01 | 50.48491 | 1.10713 | 21004 ft | 354 kts | 317° |
| 2026-05-06 15:02 | 50.50332 | 1.08165 | 20575 ft | 352 kts | 317° |
| 2026-05-06 15:02 | 50.52127 | 1.05508 | 20155 ft | 348 kts | 311° |
| 2026-05-06 15:02 | 50.53749 | 1.02770 | 19738 ft | 346 kts | 312° |
| 2026-05-06 15:02 | 50.55387 | 1.00014 | 19314 ft | 344 kts | 312° |
| 2026-05-06 15:03 | 50.57008 | 0.97275 | 18890 ft | 341 kts | 312° |
| 2026-05-06 15:03 | 50.58622 | 0.94550 | 18453 ft | 339 kts | 312° |
| 2026-05-06 15:03 | 50.60227 | 0.91838 | 17987 ft | 337 kts | 312° |
| 2026-05-06 15:03 | 50.61821 | 0.89148 | 17529 ft | 335 kts | 312° |
| 2026-05-06 15:04 | 50.63405 | 0.86478 | 17088 ft | 333 kts | 312° |
| 2026-05-06 15:04 | 50.64975 | 0.83821 | 16651 ft | 330 kts | 312° |
| 2026-05-06 15:04 | 50.66529 | 0.81187 | 16208 ft | 326 kts | 312° |
| 2026-05-06 15:04 | 50.68048 | 0.78559 | 15714 ft | 324 kts | 310° |
| 2026-05-06 15:05 | 50.69530 | 0.75786 | 14900 ft | 336 kts | 309° |
| 2026-05-06 15:05 | 50.70999 | 0.72896 | 14151 ft | 340 kts | 308° |
| 2026-05-06 15:05 | 50.72478 | 0.69931 | 13315 ft | 346 kts | 308° |
| 2026-05-06 15:05 | 50.73968 | 0.66933 | 12518 ft | 348 kts | 308° |
| 2026-05-06 15:06 | 50.75473 | 0.63922 | 11725 ft | 350 kts | 309° |
| 2026-05-06 15:06 | 50.76973 | 0.60944 | 11332 ft | 340 kts | 309° |
| 2026-05-06 15:06 | 50.78381 | 0.58160 | 11129 ft | 308 kts | 309° |
| 2026-05-06 15:06 | 50.79668 | 0.55620 | 10724 ft | 288 kts | 310° |
| 2026-05-06 15:07 | 50.80891 | 0.53209 | 10430 ft | 280 kts | 310° |
| 2026-05-06 15:07 | 50.82120 | 0.50796 | 10145 ft | 281 kts | 310° |
| 2026-05-06 15:07 | 50.83334 | 0.48406 | 9964 ft | 278 kts | 310° |
| 2026-05-06 15:07 | 50.84549 | 0.46012 | 9970 ft | 279 kts | 310° |
| 2026-05-06 15:08 | 50.85759 | 0.43625 | 9979 ft | 279 kts | 310° |
| 2026-05-06 15:08 | 50.86971 | 0.41229 | 9982 ft | 278 kts | 310° |
| 2026-05-06 15:08 | 50.88175 | 0.38845 | 9986 ft | 277 kts | 310° |
| 2026-05-06 15:08 | 50.89377 | 0.36462 | 9989 ft | 277 kts | 309° |
| 2026-05-06 15:09 | 50.90583 | 0.34067 | 9991 ft | 278 kts | 309° |
| 2026-05-06 15:09 | 50.91621 | 0.31504 | 9876 ft | 277 kts | 292° |
| 2026-05-06 15:09 | 50.92086 | 0.28551 | 9423 ft | 277 kts | 282° |
| 2026-05-06 15:09 | 50.92423 | 0.25542 | 8987 ft | 276 kts | 282° |
| 2026-05-06 15:10 | 50.92728 | 0.22553 | 8592 ft | 274 kts | 281° |
| 2026-05-06 15:10 | 50.93039 | 0.19575 | 8150 ft | 274 kts | 282° |
| 2026-05-06 15:10 | 50.93350 | 0.16608 | 7741 ft | 272 kts | 281° |
| 2026-05-06 15:10 | 50.93663 | 0.13693 | 7362 ft | 271 kts | 281° |
| 2026-05-06 15:11 | 50.93985 | 0.10719 | 7025 ft | 268 kts | 283° |
| 2026-05-06 15:11 | 50.94282 | 0.07806 | 6981 ft | 269 kts | 281° |
| 2026-05-06 15:11 | 50.94583 | 0.04871 | 6983 ft | 270 kts | 279° |
| 2026-05-06 15:11 | 50.94886 | 0.01965 | 6981 ft | 270 kts | 281° |
| 2026-05-06 15:12 | 50.95194 | -0.01016 | 6975 ft | 270 kts | 281° |
| 2026-05-06 15:12 | 50.95475 | -0.03901 | 6973 ft | 266 kts | 281° |
| 2026-05-06 15:12 | 50.95755 | -0.06795 | 6971 ft | 265 kts | 281° |
| 2026-05-06 15:12 | 50.96037 | -0.09693 | 6978 ft | 266 kts | 281° |
| 2026-05-06 15:13 | 50.96325 | -0.12627 | 6974 ft | 266 kts | 281° |
| 2026-05-06 15:13 | 50.96610 | -0.15524 | 6977 ft | 266 kts | 281° |
| 2026-05-06 15:13 | 50.96887 | -0.18383 | 6977 ft | 266 kts | 281° |
| 2026-05-06 15:13 | 50.97172 | -0.21315 | 6976 ft | 266 kts | 281° |
| 2026-05-06 15:14 | 50.97454 | -0.24178 | 6976 ft | 266 kts | 281° |
| 2026-05-06 15:14 | 50.97736 | -0.27071 | 6971 ft | 266 kts | 281° |
| 2026-05-06 15:14 | 50.98020 | -0.29968 | 6970 ft | 265 kts | 281° |
| 2026-05-06 15:14 | 50.98300 | -0.32849 | 6648 ft | 263 kts | 281° |
| 2026-05-06 15:15 | 50.98577 | -0.35712 | 6285 ft | 261 kts | 281° |
| 2026-05-06 15:15 | 50.98850 | -0.38557 | 5863 ft | 260 kts | 282° |
| 2026-05-06 15:15 | 50.99299 | -0.41311 | 5455 ft | 256 kts | 300° |
| 2026-05-06 15:15 | 51.00349 | -0.43381 | 5310 ft | 239 kts | 319° |
| 2026-05-06 15:16 | 51.01527 | -0.45047 | 5183 ft | 215 kts | 320° |
| 2026-05-06 15:16 | 51.02598 | -0.46507 | 5068 ft | 192 kts | 321° |
| 2026-05-06 15:16 | 51.03567 | -0.47837 | 4764 ft | 180 kts | 321° |
| 2026-05-06 15:16 | 51.04502 | -0.49135 | 4287 ft | 178 kts | 321° |
| 2026-05-06 15:17 | 51.05433 | -0.50428 | 3783 ft | 178 kts | 321° |
| 2026-05-06 15:17 | 51.06360 | -0.51720 | 3315 ft | 176 kts | 322° |
| 2026-05-06 15:17 | 51.07317 | -0.52913 | 2998 ft | 173 kts | 335° |
| 2026-05-06 15:17 | 51.08496 | -0.53097 | 3006 ft | 175 kts | 12° |
| 2026-05-06 15:18 | 51.09589 | -0.52257 | 3002 ft | 178 kts | 37° |
| 2026-05-06 15:18 | 51.10342 | -0.50694 | 3017 ft | 181 kts | 63° |
| 2026-05-06 15:18 | 51.10674 | -0.48735 | 3016 ft | 184 kts | 73° |
| 2026-05-06 15:18 | 51.10946 | -0.46765 | 3000 ft | 177 kts | 73° |
| 2026-05-06 15:19 | 51.11205 | -0.44908 | 2996 ft | 169 kts | 73° |
| 2026-05-06 15:19 | 51.11457 | -0.43110 | 2983 ft | 165 kts | 74° |
| 2026-05-06 15:19 | 51.11709 | -0.41322 | 2844 ft | 165 kts | 73° |
| 2026-05-06 15:19 | 51.11957 | -0.39556 | 2652 ft | 163 kts | 72° |
| 2026-05-06 15:20 | 51.12201 | -0.37811 | 2438 ft | 160 kts | 73° |
| 2026-05-06 15:20 | 51.12444 | -0.36078 | 2226 ft | 160 kts | 72° |
| 2026-05-06 15:20 | 51.12686 | -0.34343 | 2010 ft | 161 kts | 74° |
| 2026-05-06 15:20 | 51.12926 | -0.32630 | 1795 ft | 161 kts | 74° |
| 2026-05-06 15:21 | 51.13170 | -0.30875 | 1571 ft | 157 kts | 72° |
| 2026-05-06 15:21 | 51.13397 | -0.29235 | 1360 ft | 151 kts | 73° |
| 2026-05-06 15:21 | 51.13621 | -0.27632 | 1137 ft | 148 kts | 75° |
| 2026-05-06 15:21 | 51.13846 | -0.26015 | 941 ft | 149 kts | 74° |
| 2026-05-06 15:22 | 51.14065 | -0.24420 | 704 ft | 146 kts | 73° |
| 2026-05-06 15:22 | 51.14284 | -0.22850 | 512 ft | 146 kts | 73° |
| 2026-05-06 15:22 | 51.14504 | -0.21278 | 346 ft | 146 kts | 73° |
| 2026-05-06 15:22 | 51.14719 | -0.19710 | 222 ft | 139 kts | 74° |
| 2026-05-06 15:23 | 51.14906 | -0.18390 | 208 ft | 93 kts | 77° |
| 2026-05-06 15:23 | 51.15013 | -0.17616 | 215 ft | 61 kts | 77° |
| 2026-05-06 15:23 | 51.15136 | -0.17223 | 208 ft | 19 kts | 20° |
| 2026-05-06 15:23 | 51.15172 | -0.17239 | 206 ft | 3 kts | 323° |
| 2026-05-06 15:24 | 51.15177 | -0.17245 | 218 ft | 0 kts | 324° |
| 2026-05-06 15:24 | 51.15178 | -0.17246 | 218 ft | 1 kts | 324° |
| 2026-05-06 15:24 | 51.15191 | -0.17259 | 213 ft | 4 kts | 327° |
| 2026-05-06 15:25 | 51.15250 | -0.17321 | 212 ft | 15 kts | 324° |
| 2026-05-06 15:25 | 51.15348 | -0.17356 | 213 ft | 12 kts | 28° |
| 2026-05-06 15:25 | 51.15384 | -0.17215 | 205 ft | 12 kts | 74° |
| 2026-05-06 15:25 | 51.15414 | -0.17085 | 212 ft | 13 kts | 76° |
| 2026-05-06 15:26 | 51.15435 | -0.16934 | 211 ft | 13 kts | 77° |
| 2026-05-06 15:26 | 51.15454 | -0.16794 | 211 ft | 13 kts | 81° |
| 2026-05-06 15:26 | 51.15452 | -0.16648 | 212 ft | 14 kts | 78° |
| 2026-05-06 15:26 | 51.15473 | -0.16538 | 209 ft | 8 kts | 45° |
| 2026-05-06 15:27 | 51.15528 | -0.16536 | 215 ft | 7 kts | 348° |
| 2026-05-06 15:27 | 51.15540 | -0.16540 | 215 ft | 0 kts | 348° |